Latest Weather Observations for Nullo Mountain

IDN60801

Issued at 3:05 am EST Wednesday 23 July 2014 (issued every 30 minutes, with the page automatically refreshed every 10 minutes)

About weather observations | Map of weather stations | Latest weather observations for NSW | Other Formats
Station Details ID: 062100 Name: NULLO MOUNTAIN AWS Lat: -32.72 Lon: 150.23 Height: 1130.0 m
Data from the previous 72 hours. | See also: Recent months at Nullo Mountain
Date/Time
EST
Temp
°C
App
Temp
°C
Dew
Point
Rel
Hum
%
Delta-T
°C
Wind Press
QNH
hPa
Press
MSL
hPa
Rain
since 9 am
mm
Dir
 
Spd
km/h
Gust
km/h
Spd
kts
Gust
kts
23/03:00am 3.5 0.4 3.4 99 0.0 ESE 9 13 5 7 - - 0.0
23/02:30am 3.9 0.1 3.8 99 0.0 E 13 17 7 9 - - 0.0
23/02:00am 3.8 -0.1 3.2 96 0.3 E 13 17 7 9 - - 0.0
23/01:30am 3.4 -0.7 2.5 94 0.4 E 13 13 7 7 - - 0.0
23/01:00am 3.9 -0.1 3.0 94 0.4 E 13 15 7 8 - - 0.0
23/12:30am 4.5 1.0 3.6 94 0.4 E 11 15 6 8 - - 0.0
23/12:00am 4.9 2.0 4.5 97 0.2 E 9 11 5 6 - - 0.0
 
Date/Time
EST
Temp
°C
App
Temp
°C
Dew
Point
Rel
Hum
%
Delta-T
°C
Wind Press
QNH
hPa
Press
MSL
hPa
Rain
since 9 am
mm
Dir
 
Spd
km/h
Gust
km/h
Spd
kts
Gust
kts
22/11:30pm 4.9 2.0 4.6 98 0.1 E 9 13 5 7 - - 0.0
22/11:00pm 4.5 1.5 4.2 98 0.1 E 9 13 5 7 - - 0.0
22/10:30pm 3.9 0.4 3.3 96 0.3 E 11 13 6 7 - - 0.0
22/10:00pm 3.9 0.7 2.9 93 0.4 E 9 13 5 7 - - 0.0
22/09:30pm 4.0 0.2 2.0 87 0.9 E 11 13 6 7 - - 0.0
22/09:00pm 4.0 0.5 1.5 84 1.1 E 9 13 5 7 - - 0.0
22/08:30pm 5.2 1.9 2.2 81 1.3 E 9 13 5 7 - - 0.0
22/08:00pm 4.6 1.2 1.8 82 1.2 E 9 11 5 6 - - 0.0
22/07:30pm 3.2 0.2 0.9 85 0.9 E 6 7 3 4 - - 0.0
22/07:00pm 3.6 0.4 0.8 82 1.2 ESE 7 9 4 5 - - 0.0
22/06:30pm 4.9 2.1 2.1 82 1.2 ESE 6 9 3 5 - - 0.0
22/06:00pm 6.0 3.1 2.5 78 1.5 ESE 7 9 4 5 - - 0.0
22/05:30pm 6.1 3.3 2.2 76 1.7 ESE 6 9 3 5 - - 0.0
22/05:00pm 7.7 5.0 2.4 69 2.4 ESE 6 7 3 4 - - 0.0
22/04:30pm 8.7 6.4 2.5 65 2.8 S 4 6 2 3 - - 0.0
22/04:00pm 9.0 6.1 1.2 58 3.4 SSE 6 7 3 4 - - 0.0
22/03:30pm 9.4 6.5 1.6 58 3.5 S 6 11 3 6 - - 0.0
22/03:00pm 9.3 5.8 1.5 58 3.5 SE 9 15 5 8 - - 0.0
22/02:30pm 9.9 7.0 2.7 61 3.3 SSW 7 13 4 7 - - 0.0
22/02:00pm 8.3 5.6 2.8 68 2.5 S 6 9 3 5 - - 0.0
22/01:30pm 10.4 8.3 3.9 64 3.1 W 4 7 2 4 - - 0.0
22/01:00pm 8.7 5.5 3.1 68 2.6 SE 9 13 5 7 - - 0.0
22/12:30pm 8.5 4.8 2.1 64 2.9 SE 11 15 6 8 - - 0.0
22/12:00pm 8.3 5.2 3.8 73 2.1 SSW 9 13 5 7 - - 0.0
22/11:30am 8.3 6.0 4.9 79 1.6 SSW 6 9 3 5 - - 0.0
22/11:00am 8.6 6.6 4.2 74 2.1 SSW 4 4 2 2 - - 0.0
22/10:30am 8.3 7.0 3.9 74 2.0 CALM 0 2 0 1 - - 0.0
22/10:00am 7.5 5.1 4.1 79 1.6 E 6 9 3 5 - - 0.0
22/09:30am 6.9 3.9 4.2 83 1.2 E 9 13 5 7 - - 0.0
22/09:00am 6.4 3.9 4.7 89 0.8 E 7 11 4 6 - - 0.2
22/08:30am 5.5 2.6 4.8 95 0.3 E 9 11 5 6 - - 0.2
22/08:00am 4.6 2.2 4.5 99 0.0 ESE 6 9 3 5 - - 0.2
22/07:30am 3.6 0.9 3.5 99 0.0 ESE 7 9 4 5 - - 0.2
22/07:00am 3.3 0.5 3.2 99 0.0 E 7 11 4 6 - - 0.2
22/06:30am 3.7 0.6 3.6 99 0.0 ESE 9 13 5 7 - - 0.0
22/06:00am 3.3 0.5 3.2 99 0.0 ESE 7 9 4 5 - - 0.0
22/05:30am 3.1 0.3 3.0 99 0.0 E 7 9 4 5 - - 0.0
22/05:00am 3.7 0.6 3.6 99 0.0 ESE 9 11 5 6 - - 0.0
22/04:30am 4.1 1.1 4.0 99 0.0 E 9 15 5 8 - - 0.0
22/04:00am 4.6 1.3 4.5 99 0.0 E 11 19 6 10 - - 0.0
22/03:30am 4.8 1.9 4.7 99 0.0 ESE 9 15 5 8 - - 0.0
22/03:00am 4.8 1.5 4.7 99 0.0 E 11 17 6 9 - - 0.0
22/02:30am 4.9 1.3 4.8 99 0.0 E 13 19 7 10 - - 0.0
22/02:00am 4.9 1.3 4.8 99 0.0 E 13 20 7 11 - - 0.0
22/01:30am 5.0 1.8 4.9 99 0.0 E 11 19 6 10 - - 0.0
22/01:00am 5.1 1.5 5.0 99 0.0 ESE 13 17 7 9 - - 0.0
22/12:30am 5.1 1.5 5.0 99 0.0 E 13 19 7 10 - - 0.0
22/12:00am 5.0 1.4 4.9 99 0.0 E 13 20 7 11 - - 0.0
 
Date/Time
EST
Temp
°C
App
Temp
°C
Dew
Point
Rel
Hum
%
Delta-T
°C
Wind Press
QNH
hPa
Press
MSL
hPa
Rain
since 9 am
mm
Dir
 
Spd
km/h
Gust
km/h
Spd
kts
Gust
kts
21/11:30pm 4.9 0.9 4.8 99 0.0 ESE 15 20 8 11 - - 0.0
21/11:00pm 5.0 1.0 4.9 99 0.0 ESE 15 20 8 11 - - 0.0
21/10:30pm 5.1 0.7 5.0 99 0.0 E 17 24 9 13 - - 0.0
21/10:00pm 4.9 1.3 4.8 99 0.0 E 13 17 7 9 - - 0.0
21/09:30pm 4.6 1.2 4.2 97 0.2 ESE 11 15 6 8 - - 0.0
21/09:00pm 4.8 1.4 4.1 95 0.3 ESE 11 15 6 8 - - 0.0
21/08:30pm 4.9 1.9 4.0 94 0.4 E 9 13 5 7 - - 0.0
21/08:00pm 4.8 1.7 3.8 93 0.4 E 9 13 5 7 - - 0.0
21/07:30pm 5.3 2.3 4.3 93 0.5 ESE 9 13 5 7 - - 0.0
21/07:00pm 5.3 2.3 4.1 92 0.5 ESE 9 13 5 7 - - 0.0
21/06:30pm 5.5 2.5 4.2 91 0.6 ESE 9 13 5 7 - - 0.0
21/06:00pm 5.6 2.6 4.2 91 0.6 ESE 9 13 5 7 - - 0.0
21/05:30pm 6.2 3.3 4.5 89 0.8 ESE 9 11 5 6 - - 0.0
21/05:00pm 7.0 4.1 4.5 84 1.2 E 9 13 5 7 - - 0.0
21/04:30pm 7.8 6.2 4.7 81 1.5 NE 2 6 1 3 - - 0.0
21/04:00pm 8.0 5.4 4.2 77 1.8 ESE 7 9 4 5 - - 0.0
21/03:30pm 8.4 6.5 5.0 79 1.6 E 4 7 2 4 - - 0.0
21/03:00pm 8.1 5.5 4.3 77 1.8 E 7 13 4 7 - - 0.0
21/02:30pm 8.3 5.3 4.3 76 1.9 E 9 13 5 7 - - 0.0
21/02:00pm 8.2 5.6 4.4 77 1.8 ESE 7 11 4 6 - - 0.0
21/01:30pm 8.6 6.3 4.6 76 1.9 NE 6 9 3 5 - - 0.0
21/01:00pm 8.5 5.9 4.3 75 2.0 E 7 13 4 7 - - 0.0
21/12:30pm 8.0 4.5 3.7 74 2.0 E 11 17 6 9 - - 0.0
21/12:00pm 7.8 4.8 4.0 77 1.8 E 9 19 5 10 - - 0.0
21/11:30am 7.4 3.7 4.4 81 1.4 E 13 19 7 10 - - 0.0
21/11:00am 7.3 3.2 4.1 80 1.5 E 15 26 8 14 - - 0.0
21/10:30am 7.0 3.6 3.8 80 1.5 E 11 20 6 11 - - 0.0
21/10:00am 6.7 2.6 4.2 84 1.2 E 15 20 8 11 - - 0.0
21/09:30am 6.3 1.7 3.8 84 1.1 E 17 22 9 12 - - 0.0
21/09:00am 5.1 0.4 3.1 87 0.9 E 17 22 9 12 - - 0.0
21/08:30am 4.4 -0.8 2.4 87 0.9 E 19 24 10 13 - - 0.0
21/08:00am 4.1 -0.8 2.1 87 0.9 E 17 22 9 12 - - 0.0
21/07:30am 3.8 -1.1 2.2 89 0.7 E 17 22 9 12 - - 0.0
21/07:00am 3.0 -2.4 1.4 89 0.7 E 19 22 10 12 - - 0.0
21/06:30am 2.9 -1.7 1.4 90 0.6 E 15 19 8 10 - - 0.0
21/06:00am 2.7 -2.0 1.2 90 0.6 E 15 19 8 10 - - 0.0
21/05:30am 2.9 -1.7 1.3 89 0.7 E 15 20 8 11 - - 0.0
21/05:00am 2.4 -0.7 1.1 91 0.5 ESE 7 9 4 5 - - 0.0
21/04:30am 3.1 -1.2 1.3 88 0.7 E 13 17 7 9 - - 0.0
21/04:00am 1.9 -1.1 1.0 94 0.4 E 6 9 3 5 - - 0.0
21/03:30am 2.6 -1.2 1.6 93 0.4 E 11 17 6 9 - - 0.0
21/03:00am 2.9 -1.2 2.5 97 0.2 E 13 20 7 11 - - 0.0
21/02:30am 3.2 -0.4 3.1 99 0.0 ESE 11 17 6 9 - - 0.0
21/02:00am 3.2 0.0 3.1 99 0.0 ESE 9 15 5 8 - - 0.0
21/01:30am 2.6 -0.7 2.2 97 0.2 ESE 9 13 5 7 - - 0.0
21/01:00am 2.8 0.1 2.4 97 0.2 E 6 9 3 5 - - 0.0
21/12:30am 3.6 0.8 3.0 96 0.3 E 7 11 4 6 - - 0.0
21/12:00am 4.2 1.1 3.5 95 0.3 E 9 15 5 8 - - 0.0
 
Date/Time
EST
Temp
°C
App
Temp
°C
Dew
Point
Rel
Hum
%
Delta-T
°C
Wind Press
QNH
hPa
Press
MSL
hPa
Rain
since 9 am
mm
Dir
 
Spd
km/h
Gust
km/h
Spd
kts
Gust
kts
20/11:30pm 4.4 0.1 3.4 93 0.4 E 15 26 8 14 - - 0.0
20/11:00pm 4.6 1.1 3.3 91 0.6 E 11 22 6 12 - - 0.0
20/10:30pm 4.7 1.1 2.7 87 0.9 E 11 19 6 10 - - 0.0
20/10:00pm 4.7 0.6 2.4 85 1.0 E 13 20 7 11 - - 0.0
20/09:30pm 5.0 2.2 3.2 88 0.8 E 7 11 4 6 - - 0.0
20/09:00pm 5.0 2.4 3.3 89 0.8 E 6 9 3 5 - - 0.0
20/08:30pm 5.1 2.7 4.1 93 0.5 ESE 6 9 3 5 - - 0.0
20/08:00pm 5.2 2.8 4.3 94 0.4 E 6 9 3 5 - - 0.0
20/07:30pm 5.4 3.0 4.5 94 0.4 ESE 6 9 3 5 - - 0.0
20/07:00pm 5.4 3.4 4.5 94 0.4 E 4 7 2 4 - - 0.0
20/06:30pm 5.5 3.5 4.5 93 0.5 E 4 6 2 3 - - 0.0
20/06:00pm 5.6 3.9 4.2 91 0.6 NNE 2 4 1 2 - - 0.0
20/05:30pm 5.8 3.3 4.0 88 0.8 ESE 6 11 3 6 - - 0.0
20/05:00pm 6.1 3.6 3.8 85 1.0 ESE 6 9 3 5 - - 0.0
20/04:30pm 6.0 3.9 3.8 86 1.0 ESE 4 9 2 5 - - 0.0
20/04:00pm 5.9 3.3 4.4 90 0.7 SE 7 11 4 6 - - 0.0
20/03:30pm 6.4 3.8 4.4 87 0.9 SSE 7 11 4 6 - - 0.0
20/03:00pm 6.3 3.3 4.3 87 0.9 ESE 9 13 5 7 - - 0.0
20/02:30pm 6.7 3.7 4.0 83 1.2 SSE 9 15 5 8 - - 0.0
20/02:00pm 6.7 3.7 4.0 83 1.2 ESE 9 15 5 8 - - 0.0
20/01:30pm 6.9 3.9 4.2 83 1.2 SE 9 15 5 8 - - 0.0
20/01:00pm 7.1 3.8 4.8 85 1.1 SE 11 20 6 11 - - 0.0
20/12:30pm 6.8 3.3 5.3 90 0.7 SE 13 20 7 11 - - 0.0
20/12:00pm 6.5 2.4 4.5 87 0.9 SE 15 24 8 13 - - 0.0
20/11:30am 5.9 1.8 4.4 90 0.7 SE 15 26 8 14 - - 0.0
20/11:00am 5.4 1.6 4.1 91 0.6 SE 13 22 7 12 - - 0.0
20/10:30am 5.4 0.8 3.7 89 0.8 SE 17 28 9 15 - - 0.0
20/10:00am 4.9 -0.2 3.2 89 0.8 SE 19 32 10 17 - - 0.0
20/09:30am 5.0 0.8 3.8 92 0.5 SE 15 30 8 16 - - 0.0
20/09:00am 4.2 -0.1 3.5 95 0.3 ESE 15 32 8 17 - - 0.0
20/08:30am 3.9 -1.1 3.5 97 0.2 ESE 19 35 10 19 - - 0.0
20/08:00am 3.9 -1.4 3.2 95 0.3 SE 20 32 11 17 - - 0.0
20/07:30am 3.5 -2.2 2.8 95 0.3 SE 22 35 12 19 - - 0.0
20/07:00am 3.3 -3.3 2.3 93 0.4 SE 26 46 14 25 - - 0.0
20/06:48am 3.4 -3.6 2.2 92 0.5 SE 28 50 15 27 - - 0.0
20/06:30am 3.4 -2.4 2.1 91 0.6 SE 22 33 12 18 - - 0.0
20/06:00am 3.4 -3.6 1.9 90 0.6 SE 28 50 15 27 - - 0.0
20/05:59am 3.4 -3.6 1.9 90 0.6 SE 28 50 15 27 - - 0.0
20/05:30am 3.2 -3.1 1.7 90 0.6 SE 24 43 13 23 - - 0.0
20/05:00am 3.1 -2.8 1.5 89 0.7 SE 22 41 12 22 - - 0.0
20/04:30am 3.1 -2.5 1.0 86 0.9 SE 20 35 11 19 - - 0.0
20/04:00am 3.2 -2.4 0.9 85 0.9 SE 20 35 11 19 - - 0.0
20/03:30am 3.0 -3.1 0.4 83 1.1 SE 22 41 12 22 - - 0.0

Other Formats:

Comma delimited format used in spreadsheet applications
http://www.bom.gov.au/fwo/IDN60801/IDN60801.94754.axf

JavaScript Object Notation format (JSON) in row-major order
http://www.bom.gov.au/fwo/IDN60801/IDN60801.94754.json